createdAt,value
2018-05-29T00:00:09.080Z,99.99
2018-05-29T00:10:09.148Z,99.99
2018-05-29T00:20:09.120Z,99.99
2018-05-29T00:30:09.233Z,99.99
2018-05-29T00:40:09.145Z,99.99
2018-05-29T00:50:09.102Z,99.99
2018-05-29T01:00:09.161Z,99.99
2018-05-29T01:10:09.111Z,99.99
2018-05-29T01:20:09.174Z,99.99
2018-05-29T01:30:09.195Z,99.99
2018-05-29T01:40:09.104Z,99.99
2018-05-29T01:50:09.163Z,99.99
2018-05-29T02:00:09.138Z,99.99
2018-05-29T02:10:09.101Z,99.99
2018-05-29T02:20:09.182Z,99.99
2018-05-29T02:30:09.142Z,99.99
2018-05-29T02:40:09.209Z,99.99
2018-05-29T02:50:09.143Z,99.99
2018-05-29T03:00:09.106Z,99.99
2018-05-29T03:10:09.189Z,99.99
2018-05-29T03:20:09.153Z,99.99
2018-05-29T03:30:09.111Z,99.99
2018-05-29T03:40:09.166Z,99.99
2018-05-29T03:50:09.114Z,99.99
2018-05-29T04:00:09.166Z,99.99
2018-05-29T04:10:09.156Z,99.99
2018-05-29T04:20:09.197Z,99.99
2018-05-29T04:30:09.190Z,99.99
2018-05-29T04:40:09.181Z,99.99
2018-05-29T04:50:09.198Z,99.99
2018-05-29T05:00:09.153Z,99.99
2018-05-29T05:10:09.146Z,99.99
2018-05-29T05:20:09.213Z,99.99
2018-05-29T05:30:09.210Z,99.99
2018-05-29T05:40:09.242Z,99.99
2018-05-29T05:50:09.164Z,99.99
2018-05-29T06:00:09.129Z,99.99
2018-05-29T06:10:09.220Z,98.83
2018-05-29T06:20:09.153Z,72.19
2018-05-29T06:30:09.109Z,60.52
2018-05-29T06:40:09.203Z,53.53
2018-05-29T06:50:09.980Z,49.28
2018-05-29T07:00:09.188Z,46.03
2018-05-29T07:10:09.201Z,42.19
2018-05-29T07:20:09.253Z,40.66
2018-05-29T07:30:09.314Z,37.59
2018-05-29T07:40:09.132Z,36.77
2018-05-29T07:50:09.204Z,33.85
2018-05-29T08:00:09.172Z,33.86
2018-05-29T08:10:09.192Z,31.86
2018-05-29T08:20:09.149Z,31.92
2018-05-29T08:30:10.009Z,35.93
2018-05-29T08:40:09.151Z,34.68
2018-05-29T08:50:09.144Z,35.5
2018-05-29T09:00:09.184Z,34.75
2018-05-29T09:10:09.153Z,39.83
2018-05-29T09:20:09.186Z,49.99
2018-05-29T09:30:09.208Z,55.69
2018-05-29T09:40:09.227Z,52.89
2018-05-29T09:50:09.206Z,53.03
2018-05-29T10:00:09.195Z,53
2018-05-29T10:10:09.238Z,55.94
2018-05-29T10:20:09.206Z,55.06
2018-05-29T10:30:09.202Z,57.87
2018-05-29T10:40:09.238Z,58.55
2018-05-29T10:50:09.240Z,59.53
2018-05-29T11:00:09.326Z,58.31
2018-05-29T11:10:09.192Z,60.53
2018-05-29T11:20:09.289Z,60.24
2018-05-29T11:30:09.252Z,57.31
2018-05-29T11:40:09.295Z,56.33
2018-05-29T11:50:09.219Z,55.47
2018-05-29T12:00:09.236Z,56.38
2018-05-29T12:10:09.331Z,55.8
2018-05-29T12:20:10.103Z,55.57
2018-05-29T12:30:09.259Z,53.11
2018-05-29T12:40:09.307Z,55.88
2018-05-29T12:50:09.228Z,56.38
2018-05-29T13:00:09.233Z,56.12
2018-05-29T13:10:09.236Z,60.57
2018-05-29T13:20:09.245Z,62.43
2018-05-29T13:30:09.263Z,62.76
2018-05-29T13:40:09.305Z,64
2018-05-29T13:50:09.238Z,62.39
2018-05-29T14:00:09.408Z,62.85
2018-05-29T14:10:09.262Z,63.31
2018-05-29T14:20:09.275Z,60.96
2018-05-29T14:30:09.259Z,59.36
2018-05-29T14:40:09.388Z,57.5
2018-05-29T14:50:09.352Z,57.5
2018-05-29T15:00:09.913Z,59.46
2018-05-29T15:10:09.372Z,61.35
2018-05-29T15:20:09.334Z,63.09
2018-05-29T15:30:09.302Z,65.75
2018-05-29T15:40:09.366Z,66.34
2018-05-29T15:50:10.439Z,68.9
2018-05-29T16:00:10.028Z,71.73
2018-05-29T16:10:10.367Z,74.87
2018-05-29T16:20:09.493Z,75.52
2018-05-29T16:30:09.618Z,75.68
2018-05-29T16:40:09.382Z,77.39
2018-05-29T16:50:09.364Z,78.71
2018-05-29T17:00:09.334Z,81.74
2018-05-29T17:10:09.374Z,86.12
2018-05-29T17:20:09.438Z,86.66
2018-05-29T17:30:09.430Z,89.09
2018-05-29T17:40:09.392Z,92.54
2018-05-29T17:50:10.673Z,93.75
2018-05-29T18:00:09.356Z,97.13
2018-05-29T18:10:10.684Z,97.72
2018-05-29T18:20:10.568Z,99.99
2018-05-29T18:30:10.281Z,99.99
2018-05-29T18:40:09.461Z,99.99
2018-05-29T18:50:09.393Z,99.99
2018-05-29T19:00:09.373Z,99.99
2018-05-29T19:10:09.426Z,99.99
2018-05-29T19:20:09.412Z,99.99
2018-05-29T19:30:09.362Z,99.99
2018-05-29T19:40:34.585Z,99.99
2018-05-29T19:50:32.822Z,99.99
2018-05-29T20:00:09.442Z,99.99
2018-05-29T20:10:09.412Z,99.99
2018-05-29T20:20:09.484Z,99.99
2018-05-29T20:30:09.460Z,99.99
2018-05-29T20:40:12.847Z,99.99
2018-05-29T20:50:09.567Z,99.99
2018-05-29T21:00:09.412Z,99.99
2018-05-29T21:10:09.501Z,99.99
2018-05-29T21:20:09.437Z,99.99
2018-05-29T21:30:09.406Z,99.99
2018-05-29T21:40:09.639Z,99.99
2018-05-29T21:50:09.535Z,99.99
2018-05-29T22:00:09.509Z,99.99
2018-05-29T22:10:10.313Z,99.99
2018-05-29T22:20:11.384Z,99.99
2018-05-29T22:30:09.487Z,99.99
2018-05-29T22:40:09.514Z,99.99
2018-05-29T22:50:09.800Z,99.99
2018-05-29T23:00:09.576Z,99.99
2018-05-29T23:10:10.629Z,99.99
2018-05-29T23:20:09.459Z,99.99
2018-05-29T23:30:09.517Z,99.99
2018-05-29T23:40:09.402Z,99.99
2018-05-29T23:50:09.432Z,99.99
